Time;durP1;ratioP1;P1;durP2;ratioP2;P2;SDS_P1;SDS_P2;PMS_P1;PMS_P2;Temp;Humidity;BMP_temperature;BMP_pressure;BME280_temperature;BME280_humidity;BME280_pressure;Samples;Min_cycle;Max_cycle;Signal;HPM_P1;HPM_P2
2022/11/23 00:01:21;;;;;;;5.97;1.67;;;;;;;3.89;100.00;96833.13;5011404;28;20298;-80
2022/11/23 00:03:50;;;;;;;4.83;1.80;;;;;;;3.82;100.00;96825.78;5052358;22;20606;-77
2022/11/23 00:06:18;;;;;;;3.00;1.50;;;;;;;3.74;100.00;96830.66;5070097;28;20221;-76
2022/11/23 00:08:45;;;;;;;3.30;1.50;;;;;;;3.67;100.00;96832.78;5070860;28;20322;-76
2022/11/23 00:11:12;;;;;;;5.10;1.77;;;;;;;3.65;100.00;96833.81;5070735;28;20248;-76
2022/11/23 00:13:39;;;;;;;4.90;2.73;;;;;;;3.65;100.00;96834.69;5070821;28;20226;-76
2022/11/23 00:16:06;;;;;;;4.13;1.70;;;;;;;3.60;100.00;96826.28;5070619;28;20680;-76
2022/11/23 00:18:34;;;;;;;2.77;1.80;;;;;;;3.57;100.00;96831.72;5070683;28;20210;-76
2022/11/23 00:21:06;;;;;;;2.27;1.60;;;;;;;3.56;100.00;96837.03;5070927;28;20211;-76
2022/11/23 00:23:32;;;;;;;8.50;1.97;;;;;;;3.55;100.00;96830.94;5070703;28;20261;-77
2022/11/23 00:25:59;;;;;;;7.47;2.13;;;;;;;3.59;100.00;96834.22;5070595;28;20214;-78
2022/11/23 00:28:25;;;;;;;4.77;2.00;;;;;;;3.55;100.00;96832.75;5070701;28;20236;-78
2022/11/23 00:30:52;;;;;;;5.73;2.00;;;;;;;3.61;100.00;96843.63;5070859;28;20210;-77
2022/11/23 00:33:18;;;;;;;5.63;2.07;;;;;;;3.66;100.00;96845.97;5070875;28;20237;-77
2022/11/23 00:35:46;;;;;;;5.03;2.00;;;;;;;3.66;100.00;96841.56;5074123;28;20208;-77
2022/11/23 00:38:13;;;;;;;3.60;1.70;;;;;;;3.72;100.00;96840.38;5073895;28;20210;-76
2022/11/23 00:40:39;;;;;;;3.07;2.00;;;;;;;3.71;100.00;96836.06;5074317;28;20610;-76
2022/11/23 00:43:06;;;;;;;3.10;1.87;;;;;;;3.72;100.00;96830.75;5074071;28;20230;-76
2022/11/23 00:45:32;;;;;;;3.67;2.10;;;;;;;3.76;100.00;96834.84;5073885;28;20214;-77
2022/11/23 00:47:59;;;;;;;5.67;2.60;;;;;;;3.87;100.00;96824.56;5073873;28;20216;-78
2022/11/23 00:50:25;;;;;;;4.53;2.00;;;;;;;4.01;100.00;96827.13;5073878;28;20218;-78
2022/11/23 00:52:53;;;;;;;3.90;2.17;;;;;;;4.16;100.00;96835.78;5073775;28;20247;-77
2022/11/23 00:55:20;;;;;;;4.80;2.00;;;;;;;4.22;100.00;96830.97;5073880;28;20226;-78
2022/11/23 00:57:46;;;;;;;4.20;2.00;;;;;;;4.29;100.00;96824.41;5073409;28;20218;-77
2022/11/23 01:00:13;;;;;;;3.13;1.80;;;;;;;4.37;100.00;96823.91;5073870;28;20205;-76
2022/11/23 01:02:40;;;;;;;2.80;1.60;;;;;;;4.41;100.00;96826.22;5073759;28;20216;-77
2022/11/23 01:05:07;;;;;;;3.77;1.67;;;;;;;4.44;100.00;96828.66;5073571;28;20229;-76
2022/11/23 01:07:33;;;;;;;5.57;1.70;;;;;;;4.53;100.00;96830.63;5073353;28;20203;-77
2022/11/23 01:10:01;;;;;;;2.13;1.43;;;;;;;4.54;100.00;96827.13;5073819;28;20241;-77
2022/11/23 01:12:28;;;;;;;6.00;1.90;;;;;;;4.55;100.00;96828.78;5073708;28;20210;-76
2022/11/23 01:14:55;;;;;;;1.97;1.67;;;;;;;4.57;100.00;96811.19;5073607;28;20231;-77
2022/11/23 01:17:21;;;;;;;4.87;1.60;;;;;;;4.54;100.00;96821.88;5073346;28;20474;-77
2022/11/23 01:19:48;;;;;;;4.17;1.90;;;;;;;4.61;100.00;96815.28;5073386;28;20587;-77
2022/11/23 01:22:14;;;;;;;4.33;1.50;;;;;;;4.58;100.00;96818.09;5073583;28;20222;-78
2022/11/23 01:24:41;;;;;;;4.63;1.70;;;;;;;4.59;100.00;96817.16;5073378;28;20229;-77
2022/11/23 01:27:08;;;;;;;2.70;1.60;;;;;;;4.59;100.00;96822.38;5072944;28;20718;-77
2022/11/23 01:29:35;;;;;;;5.60;1.70;;;;;;;4.55;100.00;96820.94;5073069;28;20237;-77
2022/11/23 01:32:01;;;;;;;2.60;2.07;;;;;;;4.57;100.00;96829.50;5073098;28;20224;-78
2022/11/23 01:34:28;;;;;;;4.63;1.53;;;;;;;4.49;100.00;96823.97;5072871;28;20230;-77
2022/11/23 01:36:54;;;;;;;3.03;1.67;;;;;;;4.44;100.00;96826.03;5072892;28;20214;-77
2022/11/23 01:39:21;;;;;;;5.57;1.53;;;;;;;4.39;100.00;96827.28;5073132;28;20204;-77
2022/11/23 01:41:47;;;;;;;3.37;1.90;;;;;;;4.32;100.00;96832.06;5072797;28;20203;-77
2022/11/23 01:44:26;;;;;;;3.97;1.87;;;;;;;4.27;100.00;96834.13;5072742;28;20227;-78
2022/11/23 01:46:53;;;;;;;2.97;1.80;;;;;;;4.18;100.00;96839.13;5072507;28;20208;-76
2022/11/23 01:49:19;;;;;;;2.90;1.60;;;;;;;4.13;100.00;96826.34;5072647;28;20238;-77
2022/11/23 01:51:50;;;;;;;3.63;1.77;;;;;;;4.04;100.00;96832.16;5072908;28;20215;-76
2022/11/23 01:54:21;;;;;;;5.37;1.43;;;;;;;4.03;100.00;96838.31;5072594;28;20230;-76
2022/11/23 01:56:53;;;;;;;3.53;1.40;;;;;;;3.94;100.00;96836.31;5072403;28;20217;-76
2022/11/23 01:59:21;;;;;;;3.47;1.60;;;;;;;3.91;100.00;96840.88;5072105;28;20214;-76
2022/11/23 02:01:49;;;;;;;2.67;1.90;;;;;;;3.83;100.00;96838.75;5072741;28;20205;-76
2022/11/23 02:04:22;;;;;;;2.93;1.80;;;;;;;3.81;100.00;96840.63;5072370;28;20243;-76
2022/11/23 02:06:50;;;;;;;5.30;1.70;;;;;;;3.80;100.00;96854.59;5072185;28;20220;-79
2022/11/23 02:09:17;;;;;;;3.10;1.70;;;;;;;3.78;100.00;96856.50;5072406;28;20227;-77
2022/11/23 02:11:44;;;;;;;1.60;1.50;;;;;;;3.69;100.00;96854.47;5072340;28;20207;-78
2022/11/23 02:14:10;;;;;;;4.77;1.90;;;;;;;3.64;100.00;96847.81;5072110;28;20230;-76
2022/11/23 02:16:38;;;;;;;4.60;1.60;;;;;;;3.59;100.00;96858.56;5072106;28;20214;-78
2022/11/23 02:19:10;;;;;;;2.83;1.40;;;;;;;3.53;100.00;96858.94;5072263;28;20221;-76
2022/11/23 02:21:36;;;;;;;4.50;1.60;;;;;;;3.54;100.00;96862.41;5072195;28;20218;-77
2022/11/23 02:24:11;;;;;;;1.93;1.50;;;;;;;3.59;100.00;96863.78;5071944;28;20706;-78
2022/11/23 02:26:40;;;;;;;2.20;1.40;;;;;;;3.67;100.00;96856.31;5073442;28;20215;-77
2022/11/23 02:29:10;;;;;;;3.87;1.77;;;;;;;3.74;100.00;96855.00;5072843;28;20229;-77
2022/11/23 02:31:37;;;;;;;3.90;1.60;;;;;;;3.78;100.00;96853.88;5073226;28;20218;-77
2022/11/23 02:34:03;;;;;;;3.90;1.43;;;;;;;3.87;100.00;96855.94;5071854;28;20233;-76
2022/11/23 02:36:35;;;;;;;3.43;1.57;;;;;;;3.93;100.00;96855.53;5071473;28;20208;-76
2022/11/23 02:39:07;;;;;;;1.63;1.30;;;;;;;4.03;100.00;96851.38;5071734;28;20202;-76
2022/11/23 02:41:36;;;;;;;3.87;1.40;;;;;;;4.06;100.00;96859.06;5072046;28;20210;-75
2022/11/23 02:44:07;;;;;;;3.90;1.60;;;;;;;4.03;100.00;96864.47;5071827;28;20230;-76
2022/11/23 02:46:34;;;;;;;3.37;1.60;;;;;;;3.97;100.00;96877.09;5071547;28;20685;-77
2022/11/23 02:49:00;;;;;;;3.87;1.43;;;;;;;3.89;100.00;96869.72;5071682;28;20234;-77
2022/11/23 02:51:27;;;;;;;3.90;1.30;;;;;;;3.84;100.00;96863.94;5071569;28;20633;-77
2022/11/23 02:53:53;;;;;;;3.13;1.50;;;;;;;3.79;100.00;96866.00;5071734;28;20582;-76
2022/11/23 02:56:20;;;;;;;2.07;1.50;;;;;;;3.77;100.00;96867.88;5071016;28;20328;-76
2022/11/23 02:58:46;;;;;;;4.27;1.60;;;;;;;3.75;100.00;96872.38;5071682;28;20207;-77
2022/11/23 03:01:14;;;;;;;6.37;2.10;;;;;;;3.79;100.00;96873.84;5071542;28;20209;-78
2022/11/23 03:03:41;;;;;;;1.37;1.27;;;;;;;3.80;100.00;96875.50;5071256;28;20231;-78
2022/11/23 03:06:07;;;;;;;4.83;1.77;;;;;;;3.75;100.00;96876.75;5071168;28;20435;-77
2022/11/23 03:08:34;;;;;;;4.63;1.93;;;;;;;3.73;100.00;96869.00;5071356;28;20220;-78
2022/11/23 03:11:00;;;;;;;3.77;1.70;;;;;;;3.70;100.00;96871.81;5071767;28;20230;-78
2022/11/23 03:13:27;;;;;;;2.60;2.10;;;;;;;3.71;100.00;96875.25;5071317;28;20732;-77
2022/11/23 03:15:55;;;;;;;2.70;1.90;;;;;;;3.70;100.00;96878.78;5071590;28;20218;-77
2022/11/23 03:18:23;;;;;;;3.20;1.90;;;;;;;3.69;100.00;96877.97;5071209;28;20210;-77
2022/11/23 03:20:50;;;;;;;4.57;2.03;;;;;;;3.68;100.00;96876.28;5071200;28;20219;-77
2022/11/23 03:23:16;;;;;;;2.83;1.90;;;;;;;3.69;100.00;96877.13;5071129;28;20609;-77
2022/11/23 03:25:43;;;;;;;4.60;1.80;;;;;;;3.71;100.00;96876.09;5071361;28;20581;-76
2022/11/23 03:28:09;;;;;;;5.93;2.30;;;;;;;3.73;100.00;96878.63;5071147;28;20207;-77
2022/11/23 03:30:36;;;;;;;3.00;2.33;;;;;;;3.69;100.00;96874.50;5071164;28;20242;-77
2022/11/23 03:33:02;;;;;;;4.83;2.43;;;;;;;3.71;100.00;96870.03;5071123;28;20597;-77
2022/11/23 03:35:30;;;;;;;3.17;2.20;;;;;;;3.69;100.00;96877.97;5071227;28;20223;-77
2022/11/23 03:37:56;;;;;;;4.53;2.17;;;;;;;3.65;100.00;96873.88;5070944;28;20220;-77
2022/11/23 03:40:23;;;;;;;6.03;2.27;;;;;;;3.68;100.00;96872.84;5071310;28;20207;-76
2022/11/23 03:42:49;;;;;;;3.83;2.53;;;;;;;3.77;100.00;96877.47;5071151;28;20210;-77
2022/11/23 03:45:16;;;;;;;6.37;2.40;;;;;;;3.82;100.00;96873.66;5071153;28;20560;-77
2022/11/23 03:47:44;;;;;;;3.47;2.10;;;;;;;3.89;100.00;96880.19;5070642;28;20232;-77
2022/11/23 03:50:10;;;;;;;4.67;2.07;;;;;;;3.96;100.00;96867.53;5071037;28;20231;-76
2022/11/23 03:52:38;;;;;;;4.87;2.13;;;;;;;4.01;100.00;96863.72;5070832;28;20672;-77
2022/11/23 03:55:05;;;;;;;5.43;2.23;;;;;;;4.01;100.00;96861.13;5071097;28;20213;-76
2022/11/23 03:57:32;;;;;;;3.93;2.03;;;;;;;4.09;100.00;96864.06;5070799;28;20311;-78
2022/11/23 03:59:58;;;;;;;3.67;2.50;;;;;;;4.20;100.00;96858.16;5070945;28;20203;-77
2022/11/23 04:02:25;;;;;;;4.20;2.20;;;;;;;4.18;100.00;96854.81;5070835;28;20223;-77
2022/11/23 04:04:51;;;;;;;4.10;2.13;;;;;;;4.22;100.00;96851.88;5070739;28;20283;-77
2022/11/23 04:07:18;;;;;;;5.70;2.47;;;;;;;4.30;100.00;96854.00;5071214;28;20217;-75
2022/11/23 04:09:46;;;;;;;6.60;2.30;;;;;;;4.30;100.00;96844.41;5074161;28;20724;-76
2022/11/23 04:12:13;;;;;;;3.70;2.30;;;;;;;4.37;100.00;96840.44;5077064;28;20308;-75
2022/11/23 04:14:39;;;;;;;3.93;2.53;;;;;;;4.40;100.00;96850.69;5078345;28;20234;-77
2022/11/23 04:17:06;;;;;;;5.73;2.80;;;;;;;4.39;100.00;96848.22;5084493;28;20300;-78
2022/11/23 04:19:32;;;;;;;4.20;2.60;;;;;;;4.40;100.00;96835.00;5091918;28;20212;-77
2022/11/23 04:21:59;;;;;;;5.87;2.17;;;;;;;4.45;100.00;96838.16;5092344;28;20213;-77
2022/11/23 04:24:25;;;;;;;2.47;2.00;;;;;;;4.46;100.00;96834.59;5087617;28;20233;-77
2022/11/23 04:26:53;;;;;;;5.27;2.60;;;;;;;4.45;100.00;96838.16;5087442;28;20619;-77
2022/11/23 04:29:20;;;;;;;3.70;1.90;;;;;;;4.44;100.00;96841.72;5078287;28;20234;-78
2022/11/23 04:31:46;;;;;;;4.53;2.43;;;;;;;4.47;100.00;96830.22;5075236;28;20231;-76
2022/11/23 04:34:13;;;;;;;2.53;1.83;;;;;;;4.48;100.00;96837.13;5074671;28;20739;-75
2022/11/23 04:36:39;;;;;;;3.53;1.70;;;;;;;4.51;100.00;96832.53;5074428;28;20206;-75
2022/11/23 04:39:06;;;;;;;5.30;1.77;;;;;;;4.54;100.00;96837.56;5074364;28;20211;-77
2022/11/23 04:41:33;;;;;;;4.33;1.50;;;;;;;4.50;100.00;96836.09;5074354;28;20210;-77
2022/11/23 04:44:01;;;;;;;6.00;1.80;;;;;;;4.53;100.00;96830.63;5074383;28;20689;-77
2022/11/23 04:46:27;;;;;;;3.17;1.77;;;;;;;4.56;100.00;96835.69;5073860;28;20209;-75
2022/11/23 04:48:54;;;;;;;4.13;1.83;;;;;;;4.50;100.00;96830.84;5074035;28;20618;-75
2022/11/23 04:51:20;;;;;;;4.43;2.07;;;;;;;4.52;100.00;96833.38;5073985;28;20577;-75
2022/11/23 04:53:47;;;;;;;1.93;1.73;;;;;;;4.50;100.00;96830.84;5073809;28;20228;-75
2022/11/23 04:56:13;;;;;;;6.83;2.20;;;;;;;4.49;100.00;96829.19;5073587;28;20204;-76
2022/11/23 04:58:40;;;;;;;3.10;2.17;;;;;;;4.48;100.00;96822.28;5073686;28;20210;-75
2022/11/23 05:01:08;;;;;;;3.63;2.13;;;;;;;4.45;100.00;96827.69;5073894;28;20202;-76
2022/11/23 05:03:34;;;;;;;2.63;1.90;;;;;;;4.41;100.00;96820.97;5073412;28;20242;-76
2022/11/23 05:06:01;;;;;;;3.77;1.90;;;;;;;4.37;100.00;96830.00;5073336;28;20685;-76
2022/11/23 05:08:28;;;;;;;3.03;1.97;;;;;;;4.33;100.00;96830.28;5073286;28;20289;-75
2022/11/23 05:10:55;;;;;;;2.73;2.00;;;;;;;4.28;100.00;96833.19;5073245;28;20230;-78
2022/11/23 05:13:22;;;;;;;2.83;1.90;;;;;;;4.24;100.00;96844.81;5073717;28;20227;-76
2022/11/23 05:15:49;;;;;;;4.13;2.23;;;;;;;4.20;100.00;96842.47;5073494;28;20213;-77
2022/11/23 05:18:17;;;;;;;3.43;2.27;;;;;;;4.16;100.00;96848.84;5073373;28;20531;-77
2022/11/23 05:20:43;;;;;;;4.50;2.13;;;;;;;4.11;100.00;96838.69;5072875;28;20302;-77
2022/11/23 05:23:10;;;;;;;4.23;2.03;;;;;;;4.10;100.00;96838.78;5073307;28;20319;-76
2022/11/23 05:25:36;;;;;;;3.23;2.30;;;;;;;4.01;100.00;96832.34;5073076;28;20218;-78
2022/11/23 05:28:03;;;;;;;5.60;2.17;;;;;;;3.94;100.00;96831.06;5073278;28;20210;-76
2022/11/23 05:30:30;;;;;;;4.93;1.97;;;;;;;3.88;100.00;96833.22;5073313;28;20228;-76
2022/11/23 05:33:00;;;;;;;3.93;2.10;;;;;;;3.78;100.00;96829.53;5073206;28;20422;-77
2022/11/23 05:35:28;;;;;;;4.70;2.43;;;;;;;3.71;100.00;96829.06;5072975;28;20257;-76
2022/11/23 05:37:55;;;;;;;4.23;2.40;;;;;;;3.63;100.00;96831.34;5072702;28;20867;-76
2022/11/23 05:40:21;;;;;;;4.37;2.27;;;;;;;3.60;100.00;96834.13;5072881;28;20204;-76
2022/11/23 05:42:48;;;;;;;4.80;2.50;;;;;;;3.57;100.00;96834.31;5073235;28;20691;-78
2022/11/23 05:45:15;;;;;;;5.93;2.70;;;;;;;3.61;100.00;96842.81;5073645;28;20204;-78
2022/11/23 05:47:41;;;;;;;4.77;2.50;;;;;;;3.65;100.00;96834.69;5072911;28;20688;-78
2022/11/23 05:50:09;;;;;;;5.63;2.90;;;;;;;3.76;100.00;96832.25;5072704;28;20727;-78
2022/11/23 05:52:36;;;;;;;5.07;2.70;;;;;;;3.90;100.00;96829.59;5072610;28;20211;-77
2022/11/23 05:55:03;;;;;;;5.43;2.80;;;;;;;3.97;100.00;96838.72;5072540;28;20208;-78
2022/11/23 05:57:30;;;;;;;4.07;2.33;;;;;;;4.02;100.00;96831.41;5072508;28;20211;-77
2022/11/23 05:59:56;;;;;;;4.03;2.53;;;;;;;4.09;100.00;96837.94;5072508;28;20222;-77
2022/11/23 06:02:23;;;;;;;5.10;3.37;;;;;;;4.19;100.00;96831.19;5072583;28;20579;-78
2022/11/23 06:04:49;;;;;;;8.97;2.80;;;;;;;4.23;100.00;96829.22;5083908;22;20234;-87
2022/11/23 06:07:16;;;;;;;5.27;2.70;;;;;;;4.23;100.00;96832.63;5076951;28;20194;-88
2022/11/23 06:09:43;;;;;;;4.13;2.60;;;;;;;4.27;100.00;96828.91;5077763;28;20223;-87
2022/11/23 06:12:10;;;;;;;3.70;2.30;;;;;;;4.26;100.00;96819.38;5075837;28;20253;-87
2022/11/23 06:14:36;;;;;;;6.60;2.70;;;;;;;4.23;100.00;96816.94;5076569;28;20289;-87
2022/11/23 06:17:03;;;;;;;7.63;2.70;;;;;;;4.21;100.00;96818.84;5077477;28;20194;-87
2022/11/23 06:19:29;;;;;;;7.80;2.90;;;;;;;4.24;100.00;96820.41;5075197;28;20273;-87
2022/11/23 06:21:56;;;;;;;6.50;3.10;;;;;;;4.26;100.00;96822.00;5077075;28;20195;-87
2022/11/23 06:24:23;;;;;;;3.40;2.73;;;;;;;4.24;100.00;96818.66;5077555;28;20210;-87
2022/11/23 06:26:52;;;;;;;8.33;3.13;;;;;;;4.26;100.00;96826.38;5070258;28;20211;-87
2022/11/23 06:29:19;;;;;;;4.47;2.60;;;;;;;4.27;100.00;96823.66;5053112;28;20226;-87
2022/11/23 06:31:46;;;;;;;7.20;3.50;;;;;;;4.29;100.00;96819.16;5051929;28;20227;-88
2022/11/23 06:34:13;;;;;;;7.40;3.43;;;;;;;4.31;100.00;96827.78;5052198;28;20228;-88
2022/11/23 06:36:39;;;;;;;7.90;3.03;;;;;;;4.31;100.00;96825.16;5052257;28;20219;-88
2022/11/23 06:39:06;;;;;;;4.93;2.50;;;;;;;4.26;100.00;96829.84;5052437;28;20222;-88
2022/11/23 06:41:32;;;;;;;7.40;2.87;;;;;;;4.29;100.00;96816.56;5052243;28;20311;-88
2022/11/23 06:44:00;;;;;;;4.60;2.40;;;;;;;4.26;100.00;96827.22;5051970;28;20239;-88
2022/11/23 06:46:27;;;;;;;4.87;2.70;;;;;;;4.25;100.00;96824.69;5051657;28;20212;-87
2022/11/23 06:48:53;;;;;;;7.07;3.03;;;;;;;4.21;100.00;96839.75;5051738;28;20211;-88
2022/11/23 06:51:20;;;;;;;4.10;2.63;;;;;;;4.23;100.00;96837.88;5051589;28;20695;-88
2022/11/23 06:53:46;;;;;;;7.00;3.10;;;;;;;4.23;100.00;96831.81;5051793;28;20230;-88
2022/11/23 06:56:13;;;;;;;6.57;3.27;;;;;;;4.19;100.00;96836.41;5051567;28;20214;-88
2022/11/23 06:58:39;;;;;;;4.67;2.57;;;;;;;4.20;100.00;96839.84;5052115;28;20222;-88
2022/11/23 07:01:09;;;;;;;6.80;3.13;;;;;;;4.19;100.00;96836.41;5051533;28;20682;-88
2022/11/23 07:03:35;;;;;;;5.67;2.60;;;;;;;4.16;100.00;96841.81;5051433;28;20240;-88
2022/11/23 07:06:04;;;;;;;5.10;3.00;;;;;;;4.11;100.00;96843.91;5051695;28;20217;-87
2022/11/23 07:08:31;;;;;;;5.30;3.10;;;;;;;4.01;100.00;96845.44;5051830;28;20617;-88
2022/11/23 07:11:00;;;;;;;4.77;3.13;;;;;;;4.01;100.00;96845.44;5051777;28;20501;-88
2022/11/23 07:13:27;;;;;;;5.17;2.70;;;;;;;3.96;100.00;96850.09;5051710;28;20242;-86
2022/11/23 07:15:53;;;;;;;8.67;3.50;;;;;;;3.93;100.00;96860.78;5051231;28;20215;-89
2022/11/23 07:18:21;;;;;;;4.33;3.03;;;;;;;3.91;100.00;96857.38;5050949;28;20565;-90
2022/11/23 07:20:47;;;;;;;6.53;3.63;;;;;;;3.94;100.00;96861.59;5051406;28;20218;-87
2022/11/23 07:23:14;;;;;;;6.17;3.00;;;;;;;3.97;100.00;96864.84;5051652;28;20216;-87
2022/11/23 07:25:40;;;;;;;4.80;2.97;;;;;;;3.94;100.00;96864.19;5051480;28;20215;-88
2022/11/23 07:28:07;;;;;;;6.37;3.20;;;;;;;3.92;100.00;96861.69;5051263;28;20224;-88
2022/11/23 07:30:35;;;;;;;6.03;2.80;;;;;;;3.93;100.00;96866.00;5051230;28;20543;-87
2022/11/23 07:33:04;;;;;;;7.60;3.70;;;;;;;3.94;100.00;96866.81;5051128;28;20211;-88
2022/11/23 07:35:32;;;;;;;6.10;3.03;;;;;;;3.94;100.00;96867.66;5051482;28;20230;-88
2022/11/23 07:37:59;;;;;;;5.17;3.10;;;;;;;3.91;100.00;96862.63;5051108;28;20284;-88
2022/11/23 07:40:26;;;;;;;7.50;3.33;;;;;;;3.91;100.00;96867.84;5051258;28;20206;-89
2022/11/23 07:42:52;;;;;;;6.03;3.47;;;;;;;3.87;100.00;96865.53;5052483;28;20277;-88
2022/11/23 07:45:19;;;;;;;8.27;3.53;;;;;;;3.96;100.00;96880.63;5054835;28;20230;-89
2022/11/23 07:47:46;;;;;;;5.53;3.30;;;;;;;3.96;100.00;96868.41;5055264;28;20214;-87
2022/11/23 07:50:13;;;;;;;7.00;3.20;;;;;;;4.02;100.00;96873.25;5055424;28;20235;-84
2022/11/23 07:52:41;;;;;;;7.70;3.40;;;;;;;4.05;100.00;96873.06;5055236;28;20211;-82
2022/11/23 07:55:09;;;;;;;7.47;3.53;;;;;;;4.13;100.00;96868.19;5054928;28;20231;-86
2022/11/23 07:57:35;;;;;;;7.90;3.10;;;;;;;4.19;100.00;96878.25;5054993;28;20221;-87
2022/11/23 08:00:02;;;;;;;5.67;2.80;;;;;;;4.24;100.00;96880.56;5053489;28;20210;-86
2022/11/23 08:02:28;;;;;;;5.17;2.90;;;;;;;4.30;100.00;96881.03;5052933;28;20260;-86
2022/11/23 08:04:55;;;;;;;6.67;3.20;;;;;;;4.36;100.00;96870.16;5053812;28;20236;-87
2022/11/23 08:07:21;;;;;;;5.50;2.70;;;;;;;4.45;100.00;96869.56;5054583;28;20214;-82
2022/11/23 08:09:50;;;;;;;5.33;2.87;;;;;;;4.49;100.00;96864.97;5054859;28;20211;-85
2022/11/23 08:12:16;;;;;;;6.50;3.20;;;;;;;4.58;100.00;96875.66;5054662;28;20288;-84
2022/11/23 08:14:43;;;;;;;3.67;2.40;;;;;;;4.67;100.00;96867.22;5054799;28;20235;-88
2022/11/23 08:17:09;;;;;;;5.53;2.83;;;;;;;4.77;100.00;96868.28;5054361;28;20297;-88
2022/11/23 08:19:36;;;;;;;6.37;2.83;;;;;;;4.90;100.00;96871.75;5054724;28;20674;-87
2022/11/23 08:22:02;;;;;;;6.97;2.77;;;;;;;4.89;100.00;96859.59;5054486;28;20200;-83
2022/11/23 08:24:29;;;;;;;4.67;2.70;;;;;;;5.00;100.00;96864.16;5054491;28;20239;-81
2022/11/23 08:26:57;;;;;;;4.63;2.80;;;;;;;5.10;100.00;96867.81;5054216;28;20212;-80
2022/11/23 08:29:24;;;;;;;4.13;2.40;;;;;;;5.22;100.00;96859.97;5054750;28;20215;-80
2022/11/23 08:31:51;;;;;;;5.40;2.83;;;;;;;5.35;100.00;96867.81;5054405;28;20226;-80
2022/11/23 08:34:18;;;;;;;6.67;3.10;;;;;;;5.47;100.00;96862.56;5054561;28;20234;-80
2022/11/23 08:36:44;;;;;;;6.80;3.20;;;;;;;5.56;100.00;96858.50;5053985;28;20340;-80
2022/11/23 08:39:13;;;;;;;5.77;2.47;;;;;;;5.70;100.00;96859.22;5054239;28;20214;-80
2022/11/23 08:41:40;;;;;;;4.87;2.70;;;;;;;5.75;100.00;96851.84;5054284;28;20205;-80
2022/11/23 08:44:10;;;;;;;5.57;2.43;;;;;;;5.88;100.00;96846.59;5054323;28;20232;-80
2022/11/23 08:46:37;;;;;;;7.83;2.70;;;;;;;5.95;100.00;96838.22;5054178;28;20291;-80
2022/11/23 08:49:03;;;;;;;8.20;2.70;;;;;;;5.94;100.00;96836.53;5054311;28;20207;-80
2022/11/23 08:51:30;;;;;;;5.13;2.30;;;;;;;5.92;100.00;96843.66;5053953;28;20238;-86
2022/11/23 08:53:56;;;;;;;5.70;2.58;;;;;;;6.02;100.00;96838.59;5052625;28;20420;-88
2022/11/23 08:56:23;;;;;;;5.90;2.70;;;;;;;6.01;100.00;96843.00;5053571;28;20211;-89
2022/11/23 08:58:49;;;;;;;5.03;2.60;;;;;;;6.05;100.00;96846.25;5054179;28;20223;-89
2022/11/23 09:01:18;;;;;;;6.07;2.80;;;;;;;6.08;100.00;96843.41;5054011;28;20212;-89
2022/11/23 09:03:44;;;;;;;6.07;2.30;;;;;;;6.16;100.00;96847.16;5053784;28;20245;-89
2022/11/23 09:06:11;;;;;;;5.07;2.10;;;;;;;6.16;100.00;96847.16;5053365;28;20200;-89
2022/11/23 09:08:38;;;;;;;3.90;2.00;;;;;;;6.16;100.00;96849.78;5053559;28;20689;-89
2022/11/23 09:11:07;;;;;;;4.77;2.53;;;;;;;6.14;100.00;96850.81;5053402;28;20732;-89
2022/11/23 09:13:36;;;;;;;6.03;2.30;;;;;;;6.08;100.00;96846.03;5053548;28;20239;-89
2022/11/23 09:16:03;;;;;;;5.73;2.20;;;;;;;6.08;100.00;96836.38;5053256;28;20204;-88
2022/11/23 09:18:32;;;;;;;4.03;2.93;;;;;;;6.03;100.00;96841.09;5053387;28;20220;-89
2022/11/23 09:20:58;;;;;;;3.67;1.93;;;;;;;5.99;100.00;96850.13;5053514;28;20206;-88
2022/11/23 09:23:26;;;;;;;2.87;1.87;;;;;;;5.97;100.00;96852.03;5053207;28;20237;-89
2022/11/23 09:25:53;;;;;;;7.77;2.50;;;;;;;5.93;100.00;96855.81;5053310;28;20208;-89
2022/11/23 09:28:19;;;;;;;4.33;2.10;;;;;;;5.97;100.00;96861.69;5053192;28;20591;-88
2022/11/23 09:30:46;;;;;;;5.70;2.33;;;;;;;5.97;100.00;96859.06;5053325;28;20240;-88
2022/11/23 09:33:13;;;;;;;4.60;2.67;;;;;;;6.03;100.00;96859.47;5053201;28;20689;-90
2022/11/23 09:35:41;;;;;;;4.03;2.27;;;;;;;6.06;100.00;96861.88;5052892;28;20678;-86
2022/11/23 09:38:07;;;;;;;3.63;2.23;;;;;;;6.08;100.00;96857.38;5052924;28;20226;-78
2022/11/23 09:40:37;;;;;;;4.97;2.43;;;;;;;6.15;100.00;96860.38;5053222;28;20213;-84
2022/11/23 09:43:17;;;;;;;5.47;1.93;;;;;;;6.17;100.00;96854.06;5052792;28;20205;-89
2022/11/23 09:45:49;;;;;;;2.77;2.07;;;;;;;6.19;100.00;96854.81;5052949;28;20228;-83
2022/11/23 09:48:28;;;;;;;5.93;2.13;;;;;;;6.17;100.00;96853.25;5052496;28;20212;-84
2022/11/23 09:51:01;;;;;;;4.35;2.72;;;;;;;6.28;100.00;96845.44;5051997;28;20946;-83
2022/11/23 09:53:33;;;;;;;2.87;2.03;;;;;;;6.30;100.00;96849.59;5051133;28;20229;-84
2022/11/23 09:55:59;;;;;;;4.07;2.20;;;;;;;6.37;100.00;96853.47;5051646;28;20583;-84
2022/11/23 09:58:32;;;;;;;5.17;3.10;;;;;;;6.39;100.00;96845.47;5051673;28;20218;-84
2022/11/23 10:01:01;;;;;;;4.80;2.17;;;;;;;6.61;100.00;96843.81;5052160;28;20213;-88
2022/11/23 10:03:29;;;;;;;4.70;2.70;;;;;;;6.73;100.00;96831.56;5041392;28;20232;-85
2022/11/23 10:06:05;;;;;;;5.23;2.33;;;;;;;6.85;100.00;96826.22;5050955;28;20201;-84
2022/11/23 10:08:44;;;;;;;7.03;2.83;;;;;;;6.88;100.00;96819.91;5051669;28;20212;-84
2022/11/23 10:11:43;;;;;;;4.03;2.40;;;;;;;6.91;100.00;96804.75;5051297;28;20314;-84
2022/11/23 10:14:27;;;;;;;5.73;2.67;;;;;;;6.92;100.00;96811.69;5052079;28;20243;-84
2022/11/23 10:17:02;;;;;;;5.60;2.73;;;;;;;6.98;100.00;96821.72;5051801;28;20211;-84
2022/11/23 10:19:44;;;;;;;6.23;2.40;;;;;;;6.92;100.00;96806.44;5050899;28;20207;-84
2022/11/23 10:22:21;;;;;;;6.63;2.63;;;;;;;6.96;100.00;96796.53;5050614;28;20206;-84
2022/11/23 10:24:51;;;;;;;4.63;2.60;;;;;;;6.91;100.00;96803.94;5051821;28;20326;-90
2022/11/23 10:27:20;;;;;;;6.60;2.23;;;;;;;6.87;100.00;96813.81;5051692;28;20218;-88
2022/11/23 10:29:48;;;;;;;6.87;2.47;;;;;;;6.88;100.00;96812.88;5041506;28;20208;-83
2022/11/23 10:32:26;;;;;;;4.03;2.47;;;;;;;6.89;100.00;96814.53;5031653;28;20236;-86
2022/11/23 10:35:00;;;;;;;4.20;2.07;;;;;;;6.86;100.00;96820.03;5031571;28;20252;-82
2022/11/23 10:37:28;;;;;;;4.97;2.73;;;;;;;6.87;100.00;96813.81;5031068;28;20693;-83
2022/11/23 10:39:54;;;;;;;4.70;2.40;;;;;;;6.91;100.00;96807.38;5030907;28;20286;-83
2022/11/23 10:42:25;;;;;;;5.13;2.20;;;;;;;6.93;100.00;96802.84;5030661;28;20208;-84
2022/11/23 10:44:55;;;;;;;4.70;3.10;;;;;;;7.08;100.00;96806.94;5031332;28;20254;-88
2022/11/23 10:47:36;;;;;;;4.73;2.70;;;;;;;7.14;100.00;96800.38;5030939;28;20208;-86
2022/11/23 10:50:19;;;;;;;4.33;2.20;;;;;;;7.20;100.00;96805.19;5031088;28;20208;-84
2022/11/23 10:52:53;;;;;;;4.50;2.30;;;;;;;7.14;100.00;96780.19;5031467;28;20201;-82
2022/11/23 10:55:24;;;;;;;7.33;2.50;;;;;;;7.16;100.00;96788.81;5031766;28;20717;-86
2022/11/23 10:57:51;;;;;;;3.70;2.27;;;;;;;7.11;100.00;96795.34;5031524;28;20214;-81
2022/11/23 11:00:20;;;;;;;4.73;2.53;;;;;;;7.18;100.00;96780.78;5031851;28;20205;-87
2022/11/23 11:02:48;;;;;;;7.47;2.20;;;;;;;7.15;98.95;96766.09;5031716;28;20232;-85
2022/11/23 11:05:30;;;;;;;3.10;1.73;;;;;;;7.20;99.24;96774.47;5031300;28;20338;-84
2022/11/23 11:08:01;;;;;;;4.33;2.00;;;;;;;7.22;99.64;96770.78;5031710;28;20205;-83
2022/11/23 11:10:38;;;;;;;4.20;2.00;;;;;;;7.36;100.00;96780.22;5031924;28;20215;-83
2022/11/23 11:13:21;;;;;;;3.73;2.20;;;;;;;7.47;99.37;96761.81;5031642;28;20280;-84
2022/11/23 11:15:52;;;;;;;8.23;2.33;;;;;;;7.63;98.47;96757.88;5031576;28;20212;-84
2022/11/23 11:18:19;;;;;;;4.10;2.07;;;;;;;7.64;100.00;96779.72;5031069;28;20589;-85
2022/11/23 11:20:46;;;;;;;3.10;2.10;;;;;;;7.77;96.42;96748.88;5031785;28;20214;-85
2022/11/23 11:23:19;;;;;;;3.90;1.90;;;;;;;7.65;96.17;96741.97;5031953;28;20217;-88
2022/11/23 11:25:47;;;;;;;3.93;1.90;;;;;;;7.58;96.69;96748.66;5032241;28;20209;-85
2022/11/23 11:28:25;;;;;;;4.70;2.00;;;;;;;7.60;96.31;96747.56;5032179;28;20409;-85
2022/11/23 11:31:02;;;;;;;4.97;2.43;;;;;;;7.65;95.31;96740.16;5032302;28;20428;-86
2022/11/23 11:33:37;;;;;;;8.23;2.33;;;;;;;7.71;93.25;96712.56;5032236;28;20238;-84
2022/11/23 11:36:07;;;;;;;4.10;2.10;;;;;;;7.74;93.28;96717.56;5031664;28;20208;-82
2022/11/23 11:38:37;;;;;;;3.53;1.97;;;;;;;7.81;94.38;96724.84;5031593;28;20207;-84